createdAt,value
2019-05-21T03:15:41.130Z,11.00
2019-05-21T03:18:10.203Z,11.00
2019-05-21T03:20:39.270Z,11.00
2019-05-21T03:23:08.385Z,10.90
2019-05-21T03:25:37.430Z,10.90
2019-05-21T03:28:06.564Z,10.90
2019-05-21T03:30:35.727Z,10.90
2019-05-21T03:33:04.928Z,10.80
2019-05-21T03:35:34.105Z,10.80
2019-05-21T03:38:03.104Z,10.80
2019-05-21T03:40:32.052Z,10.80
2019-05-21T03:43:01.126Z,10.80
2019-05-21T03:45:30.225Z,10.70
2019-05-21T03:47:59.298Z,10.80
2019-05-21T03:50:28.942Z,10.70
2019-05-21T03:52:58.041Z,10.80
2019-05-21T03:55:27.149Z,10.70
2019-05-21T03:57:56.214Z,10.70
2019-05-21T04:00:25.393Z,10.70
2019-05-21T04:02:54.774Z,10.70
2019-05-21T04:05:25.390Z,10.70
2019-05-21T04:07:55.053Z,10.60
2019-05-21T04:10:25.095Z,10.70
2019-05-21T04:13:07.282Z,10.60
2019-05-21T04:16:16.687Z,10.60
2019-05-21T04:19:19.620Z,10.60
2019-05-21T04:21:48.794Z,10.60
2019-05-21T04:24:17.849Z,10.60
2019-05-21T04:26:46.979Z,10.60
2019-05-21T04:29:16.220Z,10.60
2019-05-21T04:31:45.366Z,10.60
2019-05-21T04:34:14.340Z,10.60
2019-05-21T04:36:43.407Z,10.60
2019-05-21T04:39:12.553Z,10.60
2019-05-21T04:41:41.666Z,10.60
2019-05-21T04:44:10.835Z,10.60
2019-05-21T04:46:39.828Z,10.50
2019-05-21T04:49:08.970Z,10.60
2019-05-21T04:51:38.023Z,10.50
2019-05-21T04:54:07.120Z,10.50
2019-05-21T04:56:36.180Z,10.50
2019-05-21T04:59:05.348Z,10.50
2019-05-21T05:01:34.330Z,10.50
2019-05-21T05:04:03.401Z,10.50
2019-05-21T05:06:32.466Z,10.50
2019-05-21T05:09:01.468Z,10.50
2019-05-21T05:11:30.526Z,10.50
2019-05-21T05:13:59.530Z,10.50
2019-05-21T05:16:28.721Z,10.50
2019-05-21T05:18:57.873Z,10.50
2019-05-21T05:21:26.864Z,10.50
2019-05-21T05:23:55.933Z,10.50
2019-05-21T05:26:25.112Z,10.50
2019-05-21T05:28:54.228Z,10.50
2019-05-21T05:31:23.215Z,10.50
2019-05-21T05:33:52.274Z,10.50
2019-05-21T05:36:21.330Z,10.60
2019-05-21T05:38:50.465Z,10.60
2019-05-21T05:41:19.480Z,10.60
2019-05-21T05:43:48.526Z,10.60
2019-05-21T05:46:17.691Z,10.60
2019-05-21T05:48:55.811Z,10.60
2019-05-21T05:51:24.843Z,10.60
2019-05-21T05:53:59.655Z,10.60
2019-05-21T05:56:29.697Z,10.60
2019-05-21T05:59:00.436Z,10.60
2019-05-21T06:01:31.329Z,10.60
2019-05-21T06:04:00.443Z,10.60
2019-05-21T06:06:29.741Z,10.70
2019-05-21T06:08:58.712Z,10.70
2019-05-21T06:11:27.787Z,10.70
2019-05-21T06:13:56.803Z,10.70
2019-05-21T06:16:25.979Z,10.80
2019-05-21T06:18:55.244Z,10.80
2019-05-21T06:21:24.373Z,10.80
2019-05-21T06:23:53.469Z,10.80
2019-05-21T06:26:22.667Z,10.80
2019-05-21T06:28:51.644Z,10.90
2019-05-21T06:31:20.726Z,10.90
2019-05-21T06:33:49.901Z,10.90
2019-05-21T06:36:18.945Z,10.90
2019-05-21T06:38:48.041Z,10.90
2019-05-21T06:41:17.048Z,10.90
2019-05-21T06:43:46.038Z,10.90
2019-05-21T06:46:15.140Z,10.90
2019-05-21T06:48:44.218Z,10.90
2019-05-21T06:51:13.219Z,10.90
2019-05-21T06:53:42.370Z,10.80
2019-05-21T06:56:11.452Z,10.80
2019-05-21T06:58:40.578Z,10.80
2019-05-21T07:01:09.697Z,10.80
2019-05-21T07:03:38.734Z,10.70
2019-05-21T07:06:07.846Z,10.70
2019-05-21T07:08:36.833Z,10.70
2019-05-21T07:11:05.863Z,10.70
2019-05-21T07:13:34.899Z,10.70
2019-05-21T07:16:04.099Z,10.60
2019-05-21T07:18:33.167Z,10.70
2019-05-21T07:21:02.232Z,10.60
2019-05-21T07:23:31.319Z,10.60
2019-05-21T07:26:00.459Z,10.70
2019-05-21T07:28:29.402Z,10.70
2019-05-21T07:30:58.504Z,10.60
2019-05-21T07:33:27.506Z,10.60
2019-05-21T07:35:56.578Z,10.60
2019-05-21T07:38:25.577Z,10.60
2019-05-21T07:40:54.742Z,10.50
2019-05-21T07:43:23.811Z,10.60
2019-05-21T07:45:53.088Z,10.60
2019-05-21T07:48:22.087Z,11.50
2019-05-21T07:50:51.126Z,10.50
2019-05-21T07:53:20.215Z,10.50
2019-05-21T07:55:49.367Z,10.60
2019-05-21T07:58:18.313Z,10.60
2019-05-21T08:00:47.465Z,10.70
2019-05-21T08:03:16.555Z,10.70
2019-05-21T08:05:45.557Z,10.80
2019-05-21T08:08:14.660Z,10.70
2019-05-21T08:10:43.667Z,10.70
2019-05-21T08:13:12.851Z,10.70
2019-05-21T08:15:42.030Z,10.70
2019-05-21T08:18:11.298Z,10.70
2019-05-21T08:20:40.468Z,10.60
2019-05-21T08:23:09.638Z,10.60
2019-05-21T08:25:38.691Z,10.60
2019-05-21T08:28:07.731Z,10.60
2019-05-21T08:30:36.822Z,10.60
2019-05-21T08:33:05.968Z,10.60
2019-05-21T08:35:35.087Z,10.60
2019-05-21T08:38:06.631Z,10.60
2019-05-21T08:40:35.064Z,10.60
2019-05-21T08:43:04.263Z,10.70
2019-05-21T08:45:33.372Z,10.70
2019-05-21T08:48:02.462Z,10.70
2019-05-21T08:50:31.614Z,10.70
2019-05-21T08:53:00.845Z,10.70
2019-05-21T08:55:29.975Z,10.70
2019-05-21T08:58:07.034Z,10.70
2019-05-21T09:00:30.355Z,10.70
2019-05-21T09:02:59.698Z,10.80
2019-05-21T09:05:28.787Z,10.80
2019-05-21T09:07:58.349Z,10.80
2019-05-21T09:10:27.347Z,10.80
2019-05-21T09:12:56.426Z,10.80
2019-05-21T09:15:25.543Z,10.90
2019-05-21T09:17:54.619Z,10.90
2019-05-21T09:20:23.935Z,11.00
2019-05-21T09:22:53.331Z,11.00
2019-05-21T09:25:22.375Z,11.00
2019-05-21T09:27:51.455Z,11.00
2019-05-21T09:30:21.542Z,11.00
2019-05-21T09:32:50.686Z,11.00
2019-05-21T09:35:19.862Z,11.10
2019-05-21T09:37:48.974Z,11.20
2019-05-21T09:40:18.617Z,11.20
2019-05-21T09:42:47.808Z,11.30
2019-05-21T09:45:16.960Z,11.30
2019-05-21T09:47:46.078Z,11.40
2019-05-21T09:50:15.737Z,11.50
2019-05-21T09:52:44.990Z,11.60
2019-05-21T09:55:14.164Z,11.60
2019-05-21T09:57:50.227Z,11.70
2019-05-21T10:00:51.091Z,11.80
2019-05-21T10:03:22.034Z,11.70
2019-05-21T10:05:51.035Z,11.80
2019-05-21T10:08:20.104Z,11.90
2019-05-21T10:10:49.183Z,12.00
2019-05-21T10:13:18.198Z,11.80
2019-05-21T10:15:47.411Z,11.70
2019-05-21T10:18:16.494Z,11.70
2019-05-21T10:20:45.674Z,11.90
2019-05-21T10:23:14.784Z,11.90
2019-05-21T10:25:43.852Z,11.70
2019-05-21T10:28:12.911Z,11.80
2019-05-21T10:30:42.202Z,11.70
2019-05-21T10:33:11.363Z,11.70
2019-05-21T10:35:40.376Z,11.90
2019-05-21T10:38:09.518Z,12.00
2019-05-21T10:40:38.562Z,12.10
2019-05-21T10:43:07.626Z,12.10
2019-05-21T10:45:36.670Z,12.20
2019-05-21T10:48:05.818Z,12.30
2019-05-21T10:50:34.919Z,12.30
2019-05-21T10:53:03.971Z,12.40
2019-05-21T10:55:33.001Z,12.40
2019-05-21T10:58:01.984Z,12.50
2019-05-21T11:00:31.324Z,12.60
2019-05-21T11:03:08.509Z,12.60
2019-05-21T11:05:40.063Z,12.60
2019-05-21T11:08:25.531Z,12.60
2019-05-21T11:10:40.057Z,12.50
2019-05-21T11:13:09.286Z,12.40
2019-05-21T11:15:38.447Z,12.30
2019-05-21T11:18:11.111Z,12.40
2019-05-21T11:20:38.337Z,12.50
2019-05-21T11:23:07.582Z,12.60
2019-05-21T11:25:36.648Z,12.70
2019-05-21T11:28:06.459Z,12.80
2019-05-21T11:30:35.571Z,12.70
2019-05-21T11:33:04.671Z,12.60
2019-05-21T11:35:35.972Z,12.60
2019-05-21T11:38:04.644Z,12.80
2019-05-21T11:40:33.818Z,12.80
2019-05-21T11:43:02.901Z,12.70
2019-05-21T11:45:33.091Z,12.60
2019-05-21T11:48:02.433Z,12.80
2019-05-21T11:50:31.613Z,12.80
2019-05-21T11:53:00.697Z,12.70
2019-05-21T11:55:29.848Z,12.80
2019-05-21T11:57:58.995Z,12.70
2019-05-21T12:00:28.813Z,12.70
2019-05-21T12:02:57.975Z,12.70
2019-05-21T12:05:27.149Z,12.70
2019-05-21T12:07:56.356Z,12.60
2019-05-21T12:10:25.446Z,12.60
2019-05-21T12:12:54.514Z,12.60
2019-05-21T12:15:23.659Z,12.80
2019-05-21T12:17:52.839Z,12.80
2019-05-21T12:20:36.290Z,12.70
2019-05-21T12:22:53.130Z,12.70
2019-05-21T12:25:22.301Z,12.50
2019-05-21T12:27:51.248Z,12.40
2019-05-21T12:30:20.683Z,12.60
2019-05-21T12:32:49.687Z,12.50
2019-05-21T12:35:18.765Z,12.50
2019-05-21T12:37:47.921Z,12.50
2019-05-21T12:40:17.379Z,12.40
2019-05-21T12:42:46.455Z,12.40
2019-05-21T12:45:15.544Z,12.40
2019-05-21T12:47:44.572Z,12.40
2019-05-21T12:50:14.908Z,12.40
2019-05-21T12:52:44.002Z,12.30
2019-05-21T12:55:13.330Z,12.20
2019-05-21T12:57:42.240Z,12.20
2019-05-21T13:00:13.510Z,12.30
2019-05-21T13:02:42.651Z,12.30
2019-05-21T13:05:11.889Z,12.20
2019-05-21T13:07:41.287Z,12.10
2019-05-21T13:10:10.869Z,12.10
2019-05-21T13:12:39.972Z,12.00
2019-05-21T13:15:09.564Z,11.90
2019-05-21T13:17:38.744Z,11.80
2019-05-21T13:20:08.553Z,11.70
2019-05-21T13:22:37.737Z,11.70
2019-05-21T13:25:07.257Z,11.70
2019-05-21T13:27:36.439Z,11.70
2019-05-21T13:30:06.022Z,11.70
2019-05-21T13:32:35.178Z,11.60
2019-05-21T13:35:04.567Z,11.60
2019-05-21T13:37:35.298Z,11.70
2019-05-21T13:40:05.362Z,11.70
2019-05-21T13:42:34.547Z,11.70
2019-05-21T13:45:03.722Z,11.70
2019-05-21T13:47:32.969Z,11.70
2019-05-21T13:50:02.173Z,11.70
2019-05-21T13:52:31.352Z,11.60
2019-05-21T13:55:00.597Z,11.60
2019-05-21T13:57:29.590Z,11.50
2019-05-21T13:59:58.755Z,11.50
2019-05-21T14:02:27.879Z,11.50
2019-05-21T14:04:56.971Z,11.60
2019-05-21T14:07:26.027Z,11.60
2019-05-21T14:10:13.296Z,11.60
2019-05-21T14:12:25.982Z,11.60
2019-05-21T14:14:55.065Z,11.60
2019-05-21T14:17:24.163Z,11.60
2019-05-21T14:19:53.318Z,11.60
2019-05-21T14:22:22.525Z,11.50
2019-05-21T14:24:51.531Z,11.50
2019-05-21T14:27:20.672Z,11.40
2019-05-21T14:29:49.702Z,11.40
2019-05-21T14:32:18.829Z,11.40
2019-05-21T14:35:01.015Z,11.40
2019-05-21T14:37:18.464Z,11.40
2019-05-21T14:39:47.462Z,11.40
2019-05-21T14:42:16.473Z,11.40
2019-05-21T14:44:50.498Z,11.40
2019-05-21T14:47:19.665Z,11.30
2019-05-21T14:49:48.760Z,11.30
2019-05-21T14:52:17.931Z,11.30
2019-05-21T14:54:46.998Z,11.30
2019-05-21T14:57:16.125Z,11.30
2019-05-21T14:59:45.219Z,11.30
2019-05-21T15:02:14.290Z,11.30
2019-05-21T15:04:43.778Z,11.30
2019-05-21T15:07:13.116Z,11.30
2019-05-21T15:09:42.239Z,11.20
2019-05-21T15:12:11.340Z,11.20
2019-05-21T15:14:40.434Z,11.20
2019-05-21T15:17:09.438Z,11.20
2019-05-21T15:19:38.691Z,11.20
2019-05-21T15:22:07.709Z,11.20
2019-05-21T15:24:36.785Z,11.10
2019-05-21T15:27:05.990Z,11.10
2019-05-21T15:29:35.144Z,11.10
2019-05-21T15:32:04.242Z,11.10
2019-05-21T15:34:33.432Z,11.20
2019-05-21T15:37:02.779Z,11.10
2019-05-21T15:39:31.928Z,11.10
2019-05-21T15:42:01.012Z,11.10
2019-05-21T15:44:30.032Z,11.00
2019-05-21T15:46:59.115Z,11.10
2019-05-21T15:49:36.373Z,11.00
2019-05-21T15:51:58.782Z,11.00
2019-05-21T15:54:27.815Z,11.00
2019-05-21T15:56:56.742Z,11.00
2019-05-21T15:59:25.827Z,11.00
2019-05-21T16:01:54.889Z,11.00
2019-05-21T16:04:24.056Z,11.00
2019-05-21T16:06:53.072Z,11.00
2019-05-21T16:09:22.104Z,11.10
2019-05-21T16:11:51.107Z,11.00
2019-05-21T16:14:20.262Z,11.00
2019-05-21T16:16:49.407Z,11.00
2019-05-21T16:19:18.452Z,11.00
2019-05-21T16:21:47.599Z,10.90
2019-05-21T16:24:16.634Z,10.90
2019-05-21T16:26:45.628Z,10.90
2019-05-21T16:29:14.767Z,10.90
2019-05-21T16:31:43.864Z,10.90
2019-05-21T16:34:12.846Z,10.90
2019-05-21T16:36:41.860Z,10.90
2019-05-21T16:39:10.956Z,11.00
2019-05-21T16:41:44.548Z,11.00
2019-05-21T16:44:10.643Z,10.90
2019-05-21T16:46:42.483Z,10.90
2019-05-21T16:49:10.666Z,10.90
2019-05-21T16:51:43.169Z,10.90
2019-05-21T16:54:10.551Z,10.90
2019-05-21T16:56:39.551Z,10.90
2019-05-21T16:59:08.723Z,10.90
2019-05-21T17:01:37.723Z,10.80
2019-05-21T17:04:06.875Z,10.80
2019-05-21T17:06:35.872Z,10.80
2019-05-21T17:09:06.400Z,10.80
2019-05-21T17:11:35.470Z,10.80
2019-05-21T17:14:04.648Z,10.80
2019-05-21T17:16:33.709Z,10.90
2019-05-21T17:19:02.756Z,10.90
2019-05-21T17:21:31.686Z,10.80
2019-05-21T17:24:00.668Z,10.90
2019-05-21T17:26:29.751Z,10.80
2019-05-21T17:29:03.326Z,10.90
2019-05-21T17:31:33.970Z,10.80
2019-05-21T17:34:05.422Z,10.80
2019-05-21T17:36:35.161Z,10.90
2019-05-21T17:39:06.327Z,10.90
2019-05-21T17:41:36.278Z,10.90
2019-05-21T17:44:06.058Z,10.80
2019-05-21T17:46:35.811Z,10.80
2019-05-21T17:49:05.776Z,10.80
2019-05-21T17:51:35.483Z,10.90
2019-05-21T17:54:04.616Z,10.80
2019-05-21T17:56:33.687Z,10.80
2019-05-21T17:59:02.854Z,10.80
2019-05-21T18:01:32.865Z,10.90
2019-05-21T18:04:02.260Z,10.90
2019-05-21T18:06:31.617Z,10.80
2019-05-21T18:09:00.800Z,10.80
2019-05-21T18:11:29.902Z,10.80
2019-05-21T18:13:59.519Z,10.80
2019-05-21T18:16:29.248Z,10.80
2019-05-21T18:19:00.762Z,10.80
2019-05-21T18:21:30.275Z,10.80
2019-05-21T18:23:59.451Z,10.90
2019-05-21T18:26:28.467Z,10.90
2019-05-21T18:28:57.556Z,10.80
2019-05-21T18:31:26.476Z,10.90
2019-05-21T18:33:55.861Z,10.90
2019-05-21T18:36:25.002Z,10.80
2019-05-21T18:38:54.656Z,10.90
2019-05-21T18:41:23.724Z,10.90
2019-05-21T18:43:52.833Z,10.90
2019-05-21T18:46:22.997Z,10.90
2019-05-21T18:48:52.091Z,10.90
2019-05-21T18:51:21.115Z,10.90
2019-05-21T18:53:50.109Z,10.80
2019-05-21T18:56:19.205Z,10.90
2019-05-21T18:58:48.296Z,10.90
2019-05-21T19:01:17.467Z,10.80
2019-05-21T19:03:46.561Z,10.80
2019-05-21T19:06:15.630Z,10.80
2019-05-21T19:08:44.802Z,10.80
2019-05-21T19:11:15.294Z,10.90
2019-05-21T19:13:44.439Z,10.80
2019-05-21T19:16:13.477Z,10.90
2019-05-21T19:18:42.642Z,10.90
2019-05-21T19:21:11.917Z,10.80
2019-05-21T19:23:40.974Z,10.90
2019-05-21T19:26:10.233Z,10.80
2019-05-21T19:28:39.457Z,10.80
2019-05-21T19:31:08.565Z,10.80
2019-05-21T19:33:37.498Z,10.80
2019-05-21T19:36:06.671Z,10.80
2019-05-21T19:38:37.278Z,10.80
2019-05-21T19:41:06.464Z,10.80
2019-05-21T19:43:35.464Z,10.80
2019-05-21T19:46:04.675Z,10.80
2019-05-21T19:48:33.823Z,10.70
2019-05-21T19:51:02.963Z,10.70
2019-05-21T19:53:32.160Z,10.70
2019-05-21T19:56:01.348Z,11.00
2019-05-21T19:58:30.636Z,10.70
2019-05-21T20:00:59.922Z,10.70
2019-05-21T20:03:29.179Z,10.80
2019-05-21T20:05:58.654Z,10.80
2019-05-21T20:08:28.418Z,10.80
2019-05-21T20:10:57.854Z,10.80
2019-05-21T20:13:32.710Z,10.80
2019-05-21T20:15:59.468Z,10.70
2019-05-21T20:18:30.456Z,10.70
2019-05-21T20:21:00.878Z,10.80
2019-05-21T20:23:30.042Z,10.80
2019-05-21T20:25:59.563Z,10.80
2019-05-21T20:28:29.428Z,10.80
2019-05-21T20:30:58.406Z,10.80
2019-05-21T20:33:27.560Z,10.70
2019-05-21T20:35:57.932Z,10.80
2019-05-21T20:38:28.809Z,10.80
2019-05-21T20:40:58.757Z,10.80
2019-05-21T20:43:28.096Z,10.80
2019-05-21T20:45:57.780Z,10.80
2019-05-21T20:48:31.903Z,10.80
2019-05-21T20:51:02.212Z,10.70
2019-05-21T20:53:31.412Z,10.70
2019-05-21T20:56:00.450Z,10.70
2019-05-21T20:58:29.627Z,10.70
2019-05-21T21:01:02.622Z,10.70
2019-05-21T21:03:33.756Z,10.70
2019-05-21T21:06:04.238Z,10.70
2019-05-21T21:08:36.517Z,10.70
2019-05-21T21:11:07.165Z,10.70
2019-05-21T21:13:36.926Z,10.70
2019-05-21T21:16:06.187Z,10.70
2019-05-21T21:18:35.259Z,10.70
2019-05-21T21:21:04.427Z,10.70
2019-05-21T21:23:34.800Z,10.70
2019-05-21T21:26:04.710Z,10.70
2019-05-21T21:28:33.942Z,10.70
2019-05-21T21:31:03.497Z,10.70
2019-05-21T21:33:32.761Z,10.60
2019-05-21T21:36:01.878Z,10.70
2019-05-21T21:38:34.110Z,10.70
2019-05-21T21:41:03.434Z,10.60
2019-05-21T21:43:32.516Z,10.60
2019-05-21T21:46:01.581Z,10.60
2019-05-21T21:48:30.916Z,10.60
2019-05-21T21:51:00.949Z,10.60
2019-05-21T21:53:30.373Z,10.60
2019-05-21T21:55:59.399Z,10.60
2019-05-21T21:58:28.423Z,10.60
2019-05-21T22:01:46.536Z,10.80
2019-05-21T22:04:17.920Z,10.60
2019-05-21T22:06:47.387Z,10.60
2019-05-21T22:09:24.486Z,10.60
2019-05-21T22:11:55.082Z,10.60
2019-05-21T22:14:24.798Z,10.60
2019-05-21T22:16:54.635Z,10.60
2019-05-21T22:19:23.979Z,10.60
2019-05-21T22:21:53.161Z,10.60
2019-05-21T22:24:22.640Z,10.60
2019-05-21T22:26:51.934Z,10.60
2019-05-21T22:29:21.537Z,10.60
